sensor_id;sensor_type;location;lat;lon;timestamp;temperature;humidity
8684;DHT22;4379;59.744;18.206;2023-04-27T00:01:00;0.30;99.90
8684;DHT22;4379;59.744;18.206;2023-04-27T00:03:32;0.40;99.90
8684;DHT22;4379;59.744;18.206;2023-04-27T00:06:00;0.50;99.90
8684;DHT22;4379;59.744;18.206;2023-04-27T00:08:27;0.50;99.90
8684;DHT22;4379;59.744;18.206;2023-04-27T00:10:55;0.60;99.90
8684;DHT22;4379;59.744;18.206;2023-04-27T00:13:22;0.70;99.90
8684;DHT22;4379;59.744;18.206;2023-04-27T00:15:49;0.70;99.90
8684;DHT22;4379;59.744;18.206;2023-04-27T00:18:17;0.90;99.90
8684;DHT22;4379;59.744;18.206;2023-04-27T00:20:44;1.00;99.90
8684;DHT22;4379;59.744;18.206;2023-04-27T00:23:11;1.00;99.90
8684;DHT22;4379;59.744;18.206;2023-04-27T00:25:38;1.00;99.90
8684;DHT22;4379;59.744;18.206;2023-04-27T00:28:06;1.00;99.90
8684;DHT22;4379;59.744;18.206;2023-04-27T00:30:33;0.90;99.90
8684;DHT22;4379;59.744;18.206;2023-04-27T00:33:01;0.90;99.90
8684;DHT22;4379;59.744;18.206;2023-04-27T00:35:28;0.80;99.90
8684;DHT22;4379;59.744;18.206;2023-04-27T00:37:56;0.80;99.90
8684;DHT22;4379;59.744;18.206;2023-04-27T00:40:23;0.80;99.90
8684;DHT22;4379;59.744;18.206;2023-04-27T00:42:50;0.60;99.90
8684;DHT22;4379;59.744;18.206;2023-04-27T00:45:17;0.60;99.90
8684;DHT22;4379;59.744;18.206;2023-04-27T00:47:44;0.50;99.90
8684;DHT22;4379;59.744;18.206;2023-04-27T00:50:12;0.60;99.90
8684;DHT22;4379;59.744;18.206;2023-04-27T00:52:40;0.60;99.90
8684;DHT22;4379;59.744;18.206;2023-04-27T00:55:08;0.70;99.90
8684;DHT22;4379;59.744;18.206;2023-04-27T00:57:35;0.80;99.90
8684;DHT22;4379;59.744;18.206;2023-04-27T01:00:03;0.80;99.90
8684;DHT22;4379;59.744;18.206;2023-04-27T01:02:34;1.00;99.90
8684;DHT22;4379;59.744;18.206;2023-04-27T01:05:02;1.10;99.90
8684;DHT22;4379;59.744;18.206;2023-04-27T01:07:30;1.10;99.90
8684;DHT22;4379;59.744;18.206;2023-04-27T01:09:57;1.20;99.90
8684;DHT22;4379;59.744;18.206;2023-04-27T01:12:24;1.30;99.90
8684;DHT22;4379;59.744;18.206;2023-04-27T01:14:52;1.40;99.90
8684;DHT22;4379;59.744;18.206;2023-04-27T01:17:19;1.50;99.90
8684;DHT22;4379;59.744;18.206;2023-04-27T01:19:49;1.50;99.90
8684;DHT22;4379;59.744;18.206;2023-04-27T01:22:17;1.50;99.90
8684;DHT22;4379;59.744;18.206;2023-04-27T01:24:44;1.60;99.90
8684;DHT22;4379;59.744;18.206;2023-04-27T01:27:11;1.60;99.90
8684;DHT22;4379;59.744;18.206;2023-04-27T01:29:39;1.70;99.90
8684;DHT22;4379;59.744;18.206;2023-04-27T01:32:07;1.70;99.90
8684;DHT22;4379;59.744;18.206;2023-04-27T01:34:34;1.70;99.90
8684;DHT22;4379;59.744;18.206;2023-04-27T01:37:02;1.80;99.90
8684;DHT22;4379;59.744;18.206;2023-04-27T01:39:29;1.80;99.90
8684;DHT22;4379;59.744;18.206;2023-04-27T01:41:56;1.80;99.90
8684;DHT22;4379;59.744;18.206;2023-04-27T01:44:24;1.80;99.90
8684;DHT22;4379;59.744;18.206;2023-04-27T01:46:51;1.80;99.90
8684;DHT22;4379;59.744;18.206;2023-04-27T01:49:19;1.80;99.90
8684;DHT22;4379;59.744;18.206;2023-04-27T01:51:46;1.90;99.90
8684;DHT22;4379;59.744;18.206;2023-04-27T01:54:13;1.90;99.90
8684;DHT22;4379;59.744;18.206;2023-04-27T01:56:40;2.00;99.90
8684;DHT22;4379;59.744;18.206;2023-04-27T01:59:07;1.90;99.90
8684;DHT22;4379;59.744;18.206;2023-04-27T02:01:35;2.00;99.90
8684;DHT22;4379;59.744;18.206;2023-04-27T02:04:02;2.00;99.90
8684;DHT22;4379;59.744;18.206;2023-04-27T02:06:30;2.00;99.90
8684;DHT22;4379;59.744;18.206;2023-04-27T02:08:57;2.00;99.90
8684;DHT22;4379;59.744;18.206;2023-04-27T02:11:24;2.00;99.90
8684;DHT22;4379;59.744;18.206;2023-04-27T02:13:52;2.00;99.90
8684;DHT22;4379;59.744;18.206;2023-04-27T02:16:19;2.10;99.90
8684;DHT22;4379;59.744;18.206;2023-04-27T02:18:46;2.10;99.90
8684;DHT22;4379;59.744;18.206;2023-04-27T02:21:14;2.00;99.90
8684;DHT22;4379;59.744;18.206;2023-04-27T02:23:42;2.00;99.90
8684;DHT22;4379;59.744;18.206;2023-04-27T02:26:20;2.00;99.90
8684;DHT22;4379;59.744;18.206;2023-04-27T02:28:48;2.10;99.90
8684;DHT22;4379;59.744;18.206;2023-04-27T02:31:16;2.10;99.90
8684;DHT22;4379;59.744;18.206;2023-04-27T02:33:46;2.00;99.90
8684;DHT22;4379;59.744;18.206;2023-04-27T02:36:13;2.10;99.90
8684;DHT22;4379;59.744;18.206;2023-04-27T02:38:40;2.10;99.90
8684;DHT22;4379;59.744;18.206;2023-04-27T02:41:08;2.10;99.90
8684;DHT22;4379;59.744;18.206;2023-04-27T02:43:35;2.10;99.90
8684;DHT22;4379;59.744;18.206;2023-04-27T02:46:03;2.10;99.90
8684;DHT22;4379;59.744;18.206;2023-04-27T02:48:30;2.10;99.90
8684;DHT22;4379;59.744;18.206;2023-04-27T02:50:57;2.10;99.90
8684;DHT22;4379;59.744;18.206;2023-04-27T02:53:25;2.00;99.90
8684;DHT22;4379;59.744;18.206;2023-04-27T02:55:52;2.00;99.90
8684;DHT22;4379;59.744;18.206;2023-04-27T02:58:19;1.90;99.90
8684;DHT22;4379;59.744;18.206;2023-04-27T03:00:46;2.00;99.90
8684;DHT22;4379;59.744;18.206;2023-04-27T03:03:14;2.00;99.90
8684;DHT22;4379;59.744;18.206;2023-04-27T03:05:42;2.00;99.90
8684;DHT22;4379;59.744;18.206;2023-04-27T03:08:09;2.00;99.90
8684;DHT22;4379;59.744;18.206;2023-04-27T03:10:36;2.10;99.90
8684;DHT22;4379;59.744;18.206;2023-04-27T03:13:03;2.20;99.90
8684;DHT22;4379;59.744;18.206;2023-04-27T03:15:30;2.20;99.90
8684;DHT22;4379;59.744;18.206;2023-04-27T03:17:57;2.20;99.90
8684;DHT22;4379;59.744;18.206;2023-04-27T03:20:25;2.20;99.90
8684;DHT22;4379;59.744;18.206;2023-04-27T03:22:52;2.20;99.90
8684;DHT22;4379;59.744;18.206;2023-04-27T03:25:19;2.20;99.90
8684;DHT22;4379;59.744;18.206;2023-04-27T03:27:47;2.20;99.90
8684;DHT22;4379;59.744;18.206;2023-04-27T03:30:14;2.20;99.90
8684;DHT22;4379;59.744;18.206;2023-04-27T03:32:41;2.20;99.90
8684;DHT22;4379;59.744;18.206;2023-04-27T03:35:12;2.10;99.90
8684;DHT22;4379;59.744;18.206;2023-04-27T03:37:39;2.20;99.90
8684;DHT22;4379;59.744;18.206;2023-04-27T03:40:06;2.20;99.90
8684;DHT22;4379;59.744;18.206;2023-04-27T03:42:34;2.10;99.90
8684;DHT22;4379;59.744;18.206;2023-04-27T03:45:01;2.00;99.90
8684;DHT22;4379;59.744;18.206;2023-04-27T03:47:28;2.10;99.90
8684;DHT22;4379;59.744;18.206;2023-04-27T03:49:56;2.20;99.90
8684;DHT22;4379;59.744;18.206;2023-04-27T03:52:23;2.20;99.90
8684;DHT22;4379;59.744;18.206;2023-04-27T03:54:50;2.20;99.90
8684;DHT22;4379;59.744;18.206;2023-04-27T03:57:17;2.20;99.90
8684;DHT22;4379;59.744;18.206;2023-04-27T03:59:44;2.30;99.90
8684;DHT22;4379;59.744;18.206;2023-04-27T04:02:11;2.30;99.90
8684;DHT22;4379;59.744;18.206;2023-04-27T04:04:39;2.30;99.90
8684;DHT22;4379;59.744;18.206;2023-04-27T04:07:07;2.20;99.90
8684;DHT22;4379;59.744;18.206;2023-04-27T04:09:34;2.10;99.90
8684;DHT22;4379;59.744;18.206;2023-04-27T04:12:04;2.00;99.90
8684;DHT22;4379;59.744;18.206;2023-04-27T04:14:31;1.90;99.90
8684;DHT22;4379;59.744;18.206;2023-04-27T04:16:58;1.80;99.90
8684;DHT22;4379;59.744;18.206;2023-04-27T04:19:25;1.70;99.90
8684;DHT22;4379;59.744;18.206;2023-04-27T04:21:53;1.70;99.90
8684;DHT22;4379;59.744;18.206;2023-04-27T04:24:20;1.60;99.90
8684;DHT22;4379;59.744;18.206;2023-04-27T04:26:47;1.70;99.90
8684;DHT22;4379;59.744;18.206;2023-04-27T04:29:14;1.70;99.90
8684;DHT22;4379;59.744;18.206;2023-04-27T04:31:42;1.60;99.90
8684;DHT22;4379;59.744;18.206;2023-04-27T04:34:09;1.90;99.90
8684;DHT22;4379;59.744;18.206;2023-04-27T04:36:37;2.10;99.90
8684;DHT22;4379;59.744;18.206;2023-04-27T04:39:04;2.30;99.90
8684;DHT22;4379;59.744;18.206;2023-04-27T04:41:32;2.50;99.90
8684;DHT22;4379;59.744;18.206;2023-04-27T04:43:59;2.60;99.90
8684;DHT22;4379;59.744;18.206;2023-04-27T04:46:26;2.40;99.90
8684;DHT22;4379;59.744;18.206;2023-04-27T04:48:54;2.30;99.90
8684;DHT22;4379;59.744;18.206;2023-04-27T04:51:22;2.20;99.90
8684;DHT22;4379;59.744;18.206;2023-04-27T04:53:49;2.20;99.90
8684;DHT22;4379;59.744;18.206;2023-04-27T04:56:16;2.30;99.90
8684;DHT22;4379;59.744;18.206;2023-04-27T04:58:43;2.60;99.90
8684;DHT22;4379;59.744;18.206;2023-04-27T05:01:10;2.90;99.90
8684;DHT22;4379;59.744;18.206;2023-04-27T05:03:38;3.50;99.90
8684;DHT22;4379;59.744;18.206;2023-04-27T05:06:06;3.80;99.90
8684;DHT22;4379;59.744;18.206;2023-04-27T05:08:33;4.90;99.90
8684;DHT22;4379;59.744;18.206;2023-04-27T05:11:00;7.10;99.90
8684;DHT22;4379;59.744;18.206;2023-04-27T05:13:27;8.70;99.90
8684;DHT22;4379;59.744;18.206;2023-04-27T05:15:55;10.40;99.90
8684;DHT22;4379;59.744;18.206;2023-04-27T05:18:22;11.80;99.90
8684;DHT22;4379;59.744;18.206;2023-04-27T05:20:50;11.90;99.90
8684;DHT22;4379;59.744;18.206;2023-04-27T05:23:17;13.20;99.90
8684;DHT22;4379;59.744;18.206;2023-04-27T05:25:44;14.90;99.90
8684;DHT22;4379;59.744;18.206;2023-04-27T05:28:11;16.00;99.90
8684;DHT22;4379;59.744;18.206;2023-04-27T05:30:38;16.30;99.90
8684;DHT22;4379;59.744;18.206;2023-04-27T05:33:06;15.40;99.90
8684;DHT22;4379;59.744;18.206;2023-04-27T05:35:33;14.30;99.90
8684;DHT22;4379;59.744;18.206;2023-04-27T05:38:01;16.20;99.90
8684;DHT22;4379;59.744;18.206;2023-04-27T05:40:28;15.20;99.90
8684;DHT22;4379;59.744;18.206;2023-04-27T05:42:55;13.90;99.90
8684;DHT22;4379;59.744;18.206;2023-04-27T05:45:22;14.00;99.90
8684;DHT22;4379;59.744;18.206;2023-04-27T05:47:50;13.10;99.90
8684;DHT22;4379;59.744;18.206;2023-04-27T05:50:17;13.60;99.90
8684;DHT22;4379;59.744;18.206;2023-04-27T05:52:44;12.50;99.90
8684;DHT22;4379;59.744;18.206;2023-04-27T05:55:12;11.10;99.90
8684;DHT22;4379;59.744;18.206;2023-04-27T05:57:39;12.10;99.90
8684;DHT22;4379;59.744;18.206;2023-04-27T06:00:07;13.40;99.90
8684;DHT22;4379;59.744;18.206;2023-04-27T06:02:36;14.70;99.90
8684;DHT22;4379;59.744;18.206;2023-04-27T06:05:04;17.90;99.90
8684;DHT22;4379;59.744;18.206;2023-04-27T06:07:31;17.80;99.90
8684;DHT22;4379;59.744;18.206;2023-04-27T06:09:59;17.50;99.90
8684;DHT22;4379;59.744;18.206;2023-04-27T06:12:26;16.90;99.90
8684;DHT22;4379;59.744;18.206;2023-04-27T06:14:53;19.00;99.90
8684;DHT22;4379;59.744;18.206;2023-04-27T06:17:21;20.20;99.90
8684;DHT22;4379;59.744;18.206;2023-04-27T06:19:48;20.30;99.90
8684;DHT22;4379;59.744;18.206;2023-04-27T06:22:15;21.10;99.90
8684;DHT22;4379;59.744;18.206;2023-04-27T06:24:45;20.20;99.90
8684;DHT22;4379;59.744;18.206;2023-04-27T06:27:13;18.90;99.90
8684;DHT22;4379;59.744;18.206;2023-04-27T06:29:41;20.40;99.90
8684;DHT22;4379;59.744;18.206;2023-04-27T06:32:08;21.00;99.90
8684;DHT22;4379;59.744;18.206;2023-04-27T06:34:36;23.00;99.90
8684;DHT22;4379;59.744;18.206;2023-04-27T06:37:03;22.10;99.90
8684;DHT22;4379;59.744;18.206;2023-04-27T06:39:31;20.60;99.90
8684;DHT22;4379;59.744;18.206;2023-04-27T06:41:58;20.20;99.90
8684;DHT22;4379;59.744;18.206;2023-04-27T06:44:29;23.20;98.30
8684;DHT22;4379;59.744;18.206;2023-04-27T06:46:57;22.60;98.50
8684;DHT22;4379;59.744;18.206;2023-04-27T06:49:25;22.10;97.40
8684;DHT22;4379;59.744;18.206;2023-04-27T06:51:52;21.60;97.90
8684;DHT22;4379;59.744;18.206;2023-04-27T06:54:20;22.80;97.50
8684;DHT22;4379;59.744;18.206;2023-04-27T06:56:47;22.30;97.30
8684;DHT22;4379;59.744;18.206;2023-04-27T06:59:14;22.20;95.90
8684;DHT22;4379;59.744;18.206;2023-04-27T07:01:42;22.30;97.40
8684;DHT22;4379;59.744;18.206;2023-04-27T07:04:09;22.60;96.10
8684;DHT22;4379;59.744;18.206;2023-04-27T07:06:39;20.40;96.50
8684;DHT22;4379;59.744;18.206;2023-04-27T07:09:06;19.40;96.10
8684;DHT22;4379;59.744;18.206;2023-04-27T07:11:52;21.20;96.20
8684;DHT22;4379;59.744;18.206;2023-04-27T07:14:20;19.50;97.00
8684;DHT22;4379;59.744;18.206;2023-04-27T07:16:47;17.70;97.30
8684;DHT22;4379;59.744;18.206;2023-04-27T07:19:14;18.10;97.90
8684;DHT22;4379;59.744;18.206;2023-04-27T07:21:42;18.10;98.50
8684;DHT22;4379;59.744;18.206;2023-04-27T07:24:09;19.20;96.90
8684;DHT22;4379;59.744;18.206;2023-04-27T07:26:36;17.00;97.10
8684;DHT22;4379;59.744;18.206;2023-04-27T07:29:03;16.60;99.30
8684;DHT22;4379;59.744;18.206;2023-04-27T07:31:45;17.00;98.90
8684;DHT22;4379;59.744;18.206;2023-04-27T07:34:12;17.60;98.70
8684;DHT22;4379;59.744;18.206;2023-04-27T07:36:39;16.90;98.60
8684;DHT22;4379;59.744;18.206;2023-04-27T07:39:06;16.70;97.90
8684;DHT22;4379;59.744;18.206;2023-04-27T07:41:34;16.30;98.90
8684;DHT22;4379;59.744;18.206;2023-04-27T07:44:01;14.70;99.70
8684;DHT22;4379;59.744;18.206;2023-04-27T07:46:28;15.00;99.90
8684;DHT22;4379;59.744;18.206;2023-04-27T07:49:00;14.60;99.90
8684;DHT22;4379;59.744;18.206;2023-04-27T07:51:28;15.00;99.90
8684;DHT22;4379;59.744;18.206;2023-04-27T07:53:55;16.00;99.90
8684;DHT22;4379;59.744;18.206;2023-04-27T07:56:22;15.60;99.30
8684;DHT22;4379;59.744;18.206;2023-04-27T07:58:49;15.40;99.90
8684;DHT22;4379;59.744;18.206;2023-04-27T08:01:16;14.90;99.90
8684;DHT22;4379;59.744;18.206;2023-04-27T08:03:47;15.10;99.20
8684;DHT22;4379;59.744;18.206;2023-04-27T08:06:15;15.50;99.90
8684;DHT22;4379;59.744;18.206;2023-04-27T08:08:43;16.40;99.90
8684;DHT22;4379;59.744;18.206;2023-04-27T08:11:10;17.30;98.20
8684;DHT22;4379;59.744;18.206;2023-04-27T08:13:38;16.40;98.30
8684;DHT22;4379;59.744;18.206;2023-04-27T08:16:05;16.40;97.80
8684;DHT22;4379;59.744;18.206;2023-04-27T08:18:33;16.10;99.90
8684;DHT22;4379;59.744;18.206;2023-04-27T08:21:00;17.40;97.70
8684;DHT22;4379;59.744;18.206;2023-04-27T08:23:28;18.00;97.90
8684;DHT22;4379;59.744;18.206;2023-04-27T08:25:57;18.70;96.40
8684;DHT22;4379;59.744;18.206;2023-04-27T08:28:24;16.80;97.60
8684;DHT22;4379;59.744;18.206;2023-04-27T08:30:51;15.80;98.20
8684;DHT22;4379;59.744;18.206;2023-04-27T08:33:19;16.20;97.50
8684;DHT22;4379;59.744;18.206;2023-04-27T08:35:46;16.00;99.10
8684;DHT22;4379;59.744;18.206;2023-04-27T08:38:16;16.80;96.90
8684;DHT22;4379;59.744;18.206;2023-04-27T08:40:43;15.70;97.90
8684;DHT22;4379;59.744;18.206;2023-04-27T08:43:11;15.60;98.70
8684;DHT22;4379;59.744;18.206;2023-04-27T08:45:38;15.20;99.80
8684;DHT22;4379;59.744;18.206;2023-04-27T08:48:12;15.70;99.30
8684;DHT22;4379;59.744;18.206;2023-04-27T08:50:42;16.50;98.40
8684;DHT22;4379;59.744;18.206;2023-04-27T08:53:17;16.70;99.60
8684;DHT22;4379;59.744;18.206;2023-04-27T08:55:45;16.30;98.60
8684;DHT22;4379;59.744;18.206;2023-04-27T08:58:12;15.00;99.40
8684;DHT22;4379;59.744;18.206;2023-04-27T09:00:41;13.60;99.50
8684;DHT22;4379;59.744;18.206;2023-04-27T09:03:22;12.60;99.30
8684;DHT22;4379;59.744;18.206;2023-04-27T09:05:50;12.00;99.90
8684;DHT22;4379;59.744;18.206;2023-04-27T09:09:01;12.00;99.90
8684;DHT22;4379;59.744;18.206;2023-04-27T09:11:37;12.00;99.90
8684;DHT22;4379;59.744;18.206;2023-04-27T09:14:22;11.00;99.90
8684;DHT22;4379;59.744;18.206;2023-04-27T09:16:56;10.70;99.90
8684;DHT22;4379;59.744;18.206;2023-04-27T09:19:28;10.10;99.90
8684;DHT22;4379;59.744;18.206;2023-04-27T09:22:06;10.50;99.90
8684;DHT22;4379;59.744;18.206;2023-04-27T09:24:34;11.20;99.90
8684;DHT22;4379;59.744;18.206;2023-04-27T09:27:01;12.00;99.90
8684;DHT22;4379;59.744;18.206;2023-04-27T09:29:36;11.50;99.90
8684;DHT22;4379;59.744;18.206;2023-04-27T09:32:17;11.00;99.90
8684;DHT22;4379;59.744;18.206;2023-04-27T09:34:46;10.30;99.90
8684;DHT22;4379;59.744;18.206;2023-04-27T09:37:13;10.20;99.90
8684;DHT22;4379;59.744;18.206;2023-04-27T09:39:41;10.40;99.90
8684;DHT22;4379;59.744;18.206;2023-04-27T09:42:11;10.90;99.90
8684;DHT22;4379;59.744;18.206;2023-04-27T09:44:39;11.30;99.90
8684;DHT22;4379;59.744;18.206;2023-04-27T09:47:06;12.10;99.90
8684;DHT22;4379;59.744;18.206;2023-04-27T09:49:34;12.80;99.90
8684;DHT22;4379;59.744;18.206;2023-04-27T09:52:01;13.70;99.90
8684;DHT22;4379;59.744;18.206;2023-04-27T09:54:31;13.60;99.90
8684;DHT22;4379;59.744;18.206;2023-04-27T09:57:18;13.00;99.90
8684;DHT22;4379;59.744;18.206;2023-04-27T10:02:27;12.10;99.90
8684;DHT22;4379;59.744;18.206;2023-04-27T10:07:51;10.40;99.90
8684;DHT22;4379;59.744;18.206;2023-04-27T10:10:22;10.60;99.90
8684;DHT22;4379;59.744;18.206;2023-04-27T10:13:01;10.80;99.90
8684;DHT22;4379;59.744;18.206;2023-04-27T10:15:28;11.20;99.90
8684;DHT22;4379;59.744;18.206;2023-04-27T10:18:03;11.20;99.90
8684;DHT22;4379;59.744;18.206;2023-04-27T10:20:35;11.10;99.90
8684;DHT22;4379;59.744;18.206;2023-04-27T10:23:02;10.80;99.90
8684;DHT22;4379;59.744;18.206;2023-04-27T10:25:37;10.60;99.90
8684;DHT22;4379;59.744;18.206;2023-04-27T10:28:05;10.50;99.90
8684;DHT22;4379;59.744;18.206;2023-04-27T10:30:36;11.20;99.90
8684;DHT22;4379;59.744;18.206;2023-04-27T10:33:08;11.90;99.90
8684;DHT22;4379;59.744;18.206;2023-04-27T10:35:41;11.80;99.90
8684;DHT22;4379;59.744;18.206;2023-04-27T10:38:16;12.00;99.90
8684;DHT22;4379;59.744;18.206;2023-04-27T10:40:55;12.20;99.90
8684;DHT22;4379;59.744;18.206;2023-04-27T10:43:33;12.20;99.90
8684;DHT22;4379;59.744;18.206;2023-04-27T10:46:09;12.40;99.90
8684;DHT22;4379;59.744;18.206;2023-04-27T10:48:41;12.10;99.90
8684;DHT22;4379;59.744;18.206;2023-04-27T10:51:13;11.60;99.90
8684;DHT22;4379;59.744;18.206;2023-04-27T10:53:41;11.80;99.90
8684;DHT22;4379;59.744;18.206;2023-04-27T10:56:09;12.10;99.20
8684;DHT22;4379;59.744;18.206;2023-04-27T10:58:37;12.00;99.50
8684;DHT22;4379;59.744;18.206;2023-04-27T11:01:07;12.40;99.70
8684;DHT22;4379;59.744;18.206;2023-04-27T11:03:35;12.50;99.90
8684;DHT22;4379;59.744;18.206;2023-04-27T11:06:04;12.00;99.20
8684;DHT22;4379;59.744;18.206;2023-04-27T11:08:31;11.60;99.90
8684;DHT22;4379;59.744;18.206;2023-04-27T11:11:02;11.50;99.90
8684;DHT22;4379;59.744;18.206;2023-04-27T11:13:30;11.30;99.90
8684;DHT22;4379;59.744;18.206;2023-04-27T11:15:59;11.40;99.90
8684;DHT22;4379;59.744;18.206;2023-04-27T11:18:30;11.80;99.90
8684;DHT22;4379;59.744;18.206;2023-04-27T11:21:09;11.20;99.50
8684;DHT22;4379;59.744;18.206;2023-04-27T11:23:37;10.40;98.90
8684;DHT22;4379;59.744;18.206;2023-04-27T11:26:09;10.40;99.90
8684;DHT22;4379;59.744;18.206;2023-04-27T11:28:37;11.00;99.90
8684;DHT22;4379;59.744;18.206;2023-04-27T11:31:05;11.40;99.50
8684;DHT22;4379;59.744;18.206;2023-04-27T11:33:33;11.50;99.90
8684;DHT22;4379;59.744;18.206;2023-04-27T11:36:01;11.30;99.90
8684;DHT22;4379;59.744;18.206;2023-04-27T11:38:32;11.20;99.90
8684;DHT22;4379;59.744;18.206;2023-04-27T11:41:03;11.00;99.90
8684;DHT22;4379;59.744;18.206;2023-04-27T11:43:30;11.00;99.90
8684;DHT22;4379;59.744;18.206;2023-04-27T11:46:01;11.00;99.90
8684;DHT22;4379;59.744;18.206;2023-04-27T11:48:29;11.00;99.90
8684;DHT22;4379;59.744;18.206;2023-04-27T11:50:57;11.10;99.90
8684;DHT22;4379;59.744;18.206;2023-04-27T11:53:34;11.00;99.90
8684;DHT22;4379;59.744;18.206;2023-04-27T11:56:03;10.90;99.90
8684;DHT22;4379;59.744;18.206;2023-04-27T11:58:38;11.00;99.90
8684;DHT22;4379;59.744;18.206;2023-04-27T12:01:08;11.00;99.90
8684;DHT22;4379;59.744;18.206;2023-04-27T12:03:36;11.00;99.90
8684;DHT22;4379;59.744;18.206;2023-04-27T12:06:04;11.10;99.90
8684;DHT22;4379;59.744;18.206;2023-04-27T12:08:34;11.60;99.90
8684;DHT22;4379;59.744;18.206;2023-04-27T12:11:01;11.80;99.90
8684;DHT22;4379;59.744;18.206;2023-04-27T12:13:33;11.80;99.60
8684;DHT22;4379;59.744;18.206;2023-04-27T12:16:03;11.90;99.90
8684;DHT22;4379;59.744;18.206;2023-04-27T12:18:31;12.00;99.90
8684;DHT22;4379;59.744;18.206;2023-04-27T12:21:00;12.30;99.90
8684;DHT22;4379;59.744;18.206;2023-04-27T12:23:29;11.80;99.80
8684;DHT22;4379;59.744;18.206;2023-04-27T12:25:57;11.20;99.10
8684;DHT22;4379;59.744;18.206;2023-04-27T12:28:26;11.10;99.40
8684;DHT22;4379;59.744;18.206;2023-04-27T12:30:53;10.70;99.90
8684;DHT22;4379;59.744;18.206;2023-04-27T12:33:22;10.50;99.90
8684;DHT22;4379;59.744;18.206;2023-04-27T12:35:49;10.50;99.90
8684;DHT22;4379;59.744;18.206;2023-04-27T12:38:16;10.30;99.90
8684;DHT22;4379;59.744;18.206;2023-04-27T12:40:44;10.40;99.90
8684;DHT22;4379;59.744;18.206;2023-04-27T12:43:11;10.50;99.90
8684;DHT22;4379;59.744;18.206;2023-04-27T12:45:38;10.20;99.90
8684;DHT22;4379;59.744;18.206;2023-04-27T12:48:06;10.30;99.90
8684;DHT22;4379;59.744;18.206;2023-04-27T12:50:36;10.10;99.90
8684;DHT22;4379;59.744;18.206;2023-04-27T12:53:03;10.20;99.90
8684;DHT22;4379;59.744;18.206;2023-04-27T12:55:31;10.20;99.90
8684;DHT22;4379;59.744;18.206;2023-04-27T12:58:02;10.20;99.90
8684;DHT22;4379;59.744;18.206;2023-04-27T13:00:30;10.20;99.90
8684;DHT22;4379;59.744;18.206;2023-04-27T13:02:57;10.40;99.90
8684;DHT22;4379;59.744;18.206;2023-04-27T13:05:25;10.90;99.90
8684;DHT22;4379;59.744;18.206;2023-04-27T13:07:54;10.80;99.90
8684;DHT22;4379;59.744;18.206;2023-04-27T13:10:22;10.50;99.90
8684;DHT22;4379;59.744;18.206;2023-04-27T13:12:53;10.50;99.90
8684;DHT22;4379;59.744;18.206;2023-04-27T13:15:20;10.40;99.90
8684;DHT22;4379;59.744;18.206;2023-04-27T13:17:47;10.20;99.90
8684;DHT22;4379;59.744;18.206;2023-04-27T13:20:15;10.30;99.90
8684;DHT22;4379;59.744;18.206;2023-04-27T13:22:42;10.10;99.80
8684;DHT22;4379;59.744;18.206;2023-04-27T13:25:09;10.30;99.90
8684;DHT22;4379;59.744;18.206;2023-04-27T13:27:36;10.20;99.50
8684;DHT22;4379;59.744;18.206;2023-04-27T13:30:04;10.30;99.90
8684;DHT22;4379;59.744;18.206;2023-04-27T13:32:32;10.20;99.90
8684;DHT22;4379;59.744;18.206;2023-04-27T13:34:59;10.10;99.90
8684;DHT22;4379;59.744;18.206;2023-04-27T13:37:26;10.10;99.90
8684;DHT22;4379;59.744;18.206;2023-04-27T13:39:54;10.10;99.90
8684;DHT22;4379;59.744;18.206;2023-04-27T13:42:21;9.90;99.90
8684;DHT22;4379;59.744;18.206;2023-04-27T13:44:54;10.00;99.90
8684;DHT22;4379;59.744;18.206;2023-04-27T13:47:24;10.20;99.90
8684;DHT22;4379;59.744;18.206;2023-04-27T13:49:51;10.00;99.90
8684;DHT22;4379;59.744;18.206;2023-04-27T13:52:19;10.00;99.90
8684;DHT22;4379;59.744;18.206;2023-04-27T13:54:46;10.10;99.90
8684;DHT22;4379;59.744;18.206;2023-04-27T13:57:13;10.20;99.90
8684;DHT22;4379;59.744;18.206;2023-04-27T13:59:40;10.30;99.90
8684;DHT22;4379;59.744;18.206;2023-04-27T14:02:07;9.90;99.90
8684;DHT22;4379;59.744;18.206;2023-04-27T14:04:34;10.00;99.90
8684;DHT22;4379;59.744;18.206;2023-04-27T14:07:02;10.00;99.90
8684;DHT22;4379;59.744;18.206;2023-04-27T14:09:29;9.70;99.90
8684;DHT22;4379;59.744;18.206;2023-04-27T14:11:56;9.60;99.90
8684;DHT22;4379;59.744;18.206;2023-04-27T14:14:23;9.80;99.90
8684;DHT22;4379;59.744;18.206;2023-04-27T14:16:54;10.00;99.90
8684;DHT22;4379;59.744;18.206;2023-04-27T14:19:22;9.90;99.90
8684;DHT22;4379;59.744;18.206;2023-04-27T14:21:50;9.90;99.90
8684;DHT22;4379;59.744;18.206;2023-04-27T14:24:17;10.20;99.90
8684;DHT22;4379;59.744;18.206;2023-04-27T14:26:44;10.40;99.90
8684;DHT22;4379;59.744;18.206;2023-04-27T14:29:13;10.50;99.90
8684;DHT22;4379;59.744;18.206;2023-04-27T14:31:41;10.20;99.90
8684;DHT22;4379;59.744;18.206;2023-04-27T14:34:08;10.00;99.90
8684;DHT22;4379;59.744;18.206;2023-04-27T14:36:36;9.90;99.90
8684;DHT22;4379;59.744;18.206;2023-04-27T14:39:03;9.90;99.90
8684;DHT22;4379;59.744;18.206;2023-04-27T14:41:32;9.80;99.90
8684;DHT22;4379;59.744;18.206;2023-04-27T14:44:00;9.80;99.90
8684;DHT22;4379;59.744;18.206;2023-04-27T14:46:27;9.60;99.90
8684;DHT22;4379;59.744;18.206;2023-04-27T14:48:54;9.60;99.90
8684;DHT22;4379;59.744;18.206;2023-04-27T14:51:22;9.40;99.90
8684;DHT22;4379;59.744;18.206;2023-04-27T14:53:49;9.50;99.90
8684;DHT22;4379;59.744;18.206;2023-04-27T14:56:16;9.40;99.90
8684;DHT22;4379;59.744;18.206;2023-04-27T14:58:43;9.30;99.90
8684;DHT22;4379;59.744;18.206;2023-04-27T15:01:10;9.60;99.90
8684;DHT22;4379;59.744;18.206;2023-04-27T15:03:37;9.50;99.90
8684;DHT22;4379;59.744;18.206;2023-04-27T15:06:05;9.50;99.90
8684;DHT22;4379;59.744;18.206;2023-04-27T15:08:33;9.50;99.90
8684;DHT22;4379;59.744;18.206;2023-04-27T15:11:00;9.40;99.90
8684;DHT22;4379;59.744;18.206;2023-04-27T15:13:29;9.40;99.90
8684;DHT22;4379;59.744;18.206;2023-04-27T15:15:57;8.60;99.90
8684;DHT22;4379;59.744;18.206;2023-04-27T15:18:25;8.60;99.90
8684;DHT22;4379;59.744;18.206;2023-04-27T15:20:53;8.30;99.90
8684;DHT22;4379;59.744;18.206;2023-04-27T15:23:21;8.10;99.90
8684;DHT22;4379;59.744;18.206;2023-04-27T15:25:57;8.10;99.90
8684;DHT22;4379;59.744;18.206;2023-04-27T15:28:24;8.00;99.90
8684;DHT22;4379;59.744;18.206;2023-04-27T15:30:51;8.00;99.90
8684;DHT22;4379;59.744;18.206;2023-04-27T15:33:18;8.10;99.90
8684;DHT22;4379;59.744;18.206;2023-04-27T15:35:46;7.90;99.90
8684;DHT22;4379;59.744;18.206;2023-04-27T15:38:14;7.80;99.90
8684;DHT22;4379;59.744;18.206;2023-04-27T15:40:41;7.70;99.90
8684;DHT22;4379;59.744;18.206;2023-04-27T15:43:08;7.90;99.90
8684;DHT22;4379;59.744;18.206;2023-04-27T15:45:35;8.00;99.90
8684;DHT22;4379;59.744;18.206;2023-04-27T15:48:02;7.80;99.90
8684;DHT22;4379;59.744;18.206;2023-04-27T15:50:30;7.80;99.90
8684;DHT22;4379;59.744;18.206;2023-04-27T15:52:57;7.50;99.90
8684;DHT22;4379;59.744;18.206;2023-04-27T15:55:24;7.20;99.90
8684;DHT22;4379;59.744;18.206;2023-04-27T15:57:54;7.30;99.90
8684;DHT22;4379;59.744;18.206;2023-04-27T16:00:21;7.50;99.90
8684;DHT22;4379;59.744;18.206;2023-04-27T16:02:49;7.50;99.90
8684;DHT22;4379;59.744;18.206;2023-04-27T16:05:17;7.70;99.90